createdAt,value
2018-06-09T00:00:08.297Z,1003.29
2018-06-09T00:01:08.317Z,1003.29
2018-06-09T00:02:08.330Z,1003.26
2018-06-09T00:03:08.342Z,1003.30
2018-06-09T00:04:08.367Z,1003.24
2018-06-09T00:05:08.381Z,1003.26
2018-06-09T00:06:08.409Z,1003.23
2018-06-09T00:08:08.432Z,1003.20
2018-06-09T00:09:08.447Z,1003.22
2018-06-09T00:10:08.461Z,1003.21
2018-06-09T00:11:08.494Z,1003.17
2018-06-09T00:12:08.493Z,1003.14
2018-06-09T00:13:08.509Z,1003.17
2018-06-09T00:14:08.581Z,1003.16
2018-06-09T00:15:08.545Z,1003.12
2018-06-09T00:16:08.562Z,1003.12
2018-06-09T00:17:08.576Z,1003.13
2018-06-09T00:18:08.590Z,1003.13
2018-06-09T00:19:08.603Z,1003.09
2018-06-09T00:20:08.624Z,1003.13
2018-06-09T00:21:08.645Z,1003.08
2018-06-09T00:22:08.657Z,1003.08
2018-06-09T00:23:08.673Z,1003.03
2018-06-09T00:24:08.711Z,1003.07
2018-06-09T00:25:08.714Z,1003.09
2018-06-09T00:26:08.776Z,1003.08
2018-06-09T00:27:08.737Z,1003.06
2018-06-09T00:28:08.756Z,1003.02
2018-06-09T00:29:08.774Z,1003.01
2018-06-09T00:30:08.782Z,1003.08
2018-06-09T00:31:08.801Z,1003.04
2018-06-09T00:32:08.815Z,1003.03
2018-06-09T00:33:08.840Z,1003.05
2018-06-09T00:34:08.862Z,1003.04
2018-06-09T00:35:08.864Z,1002.97
2018-06-09T00:36:08.882Z,1002.97
2018-06-09T00:37:08.900Z,1002.97
2018-06-09T00:38:08.919Z,1003.01
2018-06-09T00:39:08.935Z,1002.97
2018-06-09T00:40:08.952Z,1003.00
2018-06-09T00:41:08.962Z,1002.96
2018-06-09T00:42:08.979Z,1002.96
2018-06-09T00:43:09.054Z,1002.96
2018-06-09T00:44:09.017Z,1002.90
2018-06-09T00:45:09.028Z,1002.94
2018-06-09T00:46:09.049Z,1002.95
2018-06-09T00:47:09.064Z,1002.90
2018-06-09T00:48:09.076Z,1002.88
2018-06-09T00:49:09.149Z,1002.88
2018-06-09T00:50:09.109Z,1002.85
2018-06-09T00:51:09.129Z,1002.84
2018-06-09T00:52:09.146Z,1002.84
2018-06-09T00:53:09.156Z,1002.82
2018-06-09T00:54:09.174Z,1002.81
2018-06-09T00:55:09.246Z,1002.80
2018-06-09T00:56:09.209Z,1002.84
2018-06-09T00:57:09.228Z,1002.83
2018-06-09T00:58:09.237Z,1002.80
2018-06-09T00:59:09.253Z,1002.82
2018-06-09T01:00:09.271Z,1002.75
2018-06-09T01:01:09.339Z,1002.76
2018-06-09T01:02:09.309Z,1002.79
2018-06-09T01:03:09.319Z,1002.76
2018-06-09T01:04:09.340Z,1002.76
2018-06-09T01:05:09.355Z,1002.75
2018-06-09T01:06:09.376Z,1002.73
2018-06-09T01:07:09.440Z,1002.70
2018-06-09T01:08:09.401Z,1002.70
2018-06-09T01:09:09.415Z,1002.71
2018-06-09T01:10:09.435Z,1002.73
2018-06-09T01:11:09.460Z,1002.67
2018-06-09T01:12:09.470Z,1002.69
2018-06-09T01:13:09.488Z,1002.64
2018-06-09T01:14:09.503Z,1002.66
2018-06-09T01:15:09.515Z,1002.66
2018-06-09T01:16:09.534Z,1002.65
2018-06-09T01:17:09.624Z,1002.64
2018-06-09T01:18:09.561Z,1002.62
2018-06-09T01:19:09.629Z,1002.60
2018-06-09T01:20:09.597Z,1002.58
2018-06-09T01:21:09.617Z,1002.62
2018-06-09T01:22:09.628Z,1002.63
2018-06-09T01:23:09.684Z,1002.63
2018-06-09T01:24:09.660Z,1002.63
2018-06-09T01:25:09.679Z,1002.63
2018-06-09T01:26:09.691Z,1002.60
2018-06-09T01:27:09.711Z,1002.59
2018-06-09T01:28:09.723Z,1002.55
2018-06-09T01:29:09.790Z,1002.54
2018-06-09T01:30:09.754Z,1002.53
2018-06-09T01:31:09.824Z,1002.56
2018-06-09T01:32:09.788Z,1002.53
2018-06-09T01:33:09.807Z,1002.53
2018-06-09T01:34:09.897Z,1002.51
2018-06-09T01:35:09.913Z,1002.47
2018-06-09T01:36:09.849Z,1002.47
2018-06-09T01:37:09.865Z,1002.44
2018-06-09T01:38:09.885Z,1002.49
2018-06-09T01:39:09.896Z,1002.45
2018-06-09T01:40:09.917Z,1002.44
2018-06-09T01:41:10.022Z,1002.46
2018-06-09T01:42:09.949Z,1002.44
2018-06-09T01:43:10.014Z,1002.46
2018-06-09T01:44:09.980Z,1002.45
2018-06-09T01:45:09.998Z,1002.43
2018-06-09T01:46:10.013Z,1002.38
2018-06-09T01:47:10.024Z,1002.39
2018-06-09T01:48:10.044Z,1002.39
2018-06-09T01:49:10.068Z,1002.40
2018-06-09T01:50:10.077Z,1002.38
2018-06-09T01:51:10.093Z,1002.38
2018-06-09T01:52:10.111Z,1002.34
2018-06-09T01:53:10.172Z,1002.36
2018-06-09T01:54:10.139Z,1002.31
2018-06-09T01:55:10.206Z,1002.31
2018-06-09T01:56:10.172Z,1002.32
2018-06-09T01:57:10.188Z,1002.32
2018-06-09T01:58:10.203Z,1002.28
2018-06-09T01:59:10.256Z,1002.25
2018-06-09T02:00:10.238Z,1002.23
2018-06-09T02:01:10.257Z,1002.21
2018-06-09T02:02:10.270Z,1002.20
2018-06-09T02:03:10.288Z,1002.19
2018-06-09T02:04:10.297Z,1002.18
2018-06-09T02:05:10.346Z,1002.18
2018-06-09T02:06:10.336Z,1002.09
2018-06-09T02:07:10.350Z,1002.17
2018-06-09T02:08:10.368Z,1002.16
2018-06-09T02:09:10.417Z,1002.15
2018-06-09T02:10:10.395Z,1002.15
2018-06-09T02:11:10.486Z,1002.16
2018-06-09T02:12:10.429Z,1002.17
2018-06-09T02:13:10.500Z,1002.18
2018-06-09T02:14:10.461Z,1002.12
2018-06-09T02:15:10.473Z,1002.10
2018-06-09T02:16:10.490Z,1002.11
2018-06-09T02:17:10.559Z,1002.13
2018-06-09T02:18:10.528Z,1002.14
2018-06-09T02:19:10.608Z,1002.12
2018-06-09T02:20:10.607Z,1002.11
2018-06-09T02:21:10.606Z,1002.10
2018-06-09T02:22:10.602Z,1002.12
2018-06-09T02:23:10.664Z,1002.05
2018-06-09T02:24:10.662Z,1002.08
2018-06-09T02:25:10.715Z,1002.10
2018-06-09T02:26:10.662Z,1002.06
2018-06-09T02:27:10.665Z,1002.11
2018-06-09T02:28:10.683Z,1002.10
2018-06-09T02:29:10.745Z,1002.08
2018-06-09T02:30:10.717Z,1002.08
2018-06-09T02:31:10.735Z,1002.11
2018-06-09T02:32:10.753Z,1002.13
2018-06-09T02:33:10.769Z,1002.17
2018-06-09T02:34:10.782Z,1002.14
2018-06-09T02:35:10.841Z,1002.14
2018-06-09T02:36:10.812Z,1002.15
2018-06-09T02:37:10.877Z,1002.14
2018-06-09T02:38:10.841Z,1002.13
2018-06-09T02:39:10.865Z,1002.14
2018-06-09T02:40:10.881Z,1002.15
2018-06-09T02:41:10.899Z,1002.13
2018-06-09T02:42:10.916Z,1002.14
2018-06-09T02:43:10.925Z,1002.15
2018-06-09T02:44:10.941Z,1002.18
2018-06-09T02:45:10.962Z,1002.18
2018-06-09T02:46:10.973Z,1002.17
2018-06-09T02:47:10.999Z,1002.18
2018-06-09T02:48:11.004Z,1002.18
2018-06-09T02:49:11.026Z,1002.15
2018-06-09T02:50:11.035Z,1002.14
2018-06-09T02:51:11.059Z,1002.15
2018-06-09T02:52:11.070Z,1002.10
2018-06-09T02:53:11.090Z,1002.13
2018-06-09T02:54:11.108Z,1002.12
2018-06-09T02:55:11.121Z,1002.09
2018-06-09T02:56:11.146Z,1002.11
2018-06-09T02:57:11.150Z,1002.08
2018-06-09T02:58:11.227Z,1002.07
2018-06-09T02:59:11.187Z,1002.10
2018-06-09T03:00:11.243Z,1002.08
2018-06-09T03:01:11.211Z,1002.04
2018-06-09T03:02:11.231Z,1002.07
2018-06-09T03:03:11.245Z,1002.04
2018-06-09T03:04:11.264Z,1002.04
2018-06-09T03:05:11.285Z,1002.00
2018-06-09T03:06:11.297Z,1002.03
2018-06-09T03:07:11.322Z,1001.98
2018-06-09T03:08:11.327Z,1001.99
2018-06-09T03:09:11.351Z,1001.97
2018-06-09T03:10:11.362Z,1002.00
2018-06-09T03:11:11.412Z,1001.97
2018-06-09T03:12:11.442Z,1001.96
2018-06-09T03:13:11.409Z,1001.94
2018-06-09T03:14:11.426Z,1001.97
2018-06-09T03:15:11.449Z,1001.95
2018-06-09T03:16:11.454Z,1001.95
2018-06-09T03:17:11.494Z,1001.97
2018-06-09T03:18:11.539Z,1001.94
2018-06-09T03:19:11.514Z,1001.94
2018-06-09T03:20:11.518Z,1001.95
2018-06-09T03:21:11.538Z,1001.99
2018-06-09T03:22:11.552Z,1002.00
2018-06-09T03:23:11.571Z,1001.99
2018-06-09T03:24:11.639Z,1002.00
2018-06-09T03:25:11.603Z,1002.01
2018-06-09T03:26:11.623Z,1001.99
2018-06-09T03:27:11.633Z,1001.96
2018-06-09T03:28:11.651Z,1001.95
2018-06-09T03:29:11.668Z,1001.94
2018-06-09T03:30:11.733Z,1001.92
2018-06-09T03:31:11.701Z,1001.91
2018-06-09T03:32:11.717Z,1001.90
2018-06-09T03:33:11.731Z,1001.88
2018-06-09T03:34:11.741Z,1001.90
2018-06-09T03:35:11.834Z,1001.88
2018-06-09T03:36:11.830Z,1001.89
2018-06-09T03:37:11.797Z,1001.86
2018-06-09T03:38:11.809Z,1001.86
2018-06-09T03:39:11.827Z,1001.91
2018-06-09T03:40:11.850Z,1001.86
2018-06-09T03:41:11.858Z,1001.88
2018-06-09T03:42:11.877Z,1001.88
2018-06-09T03:43:11.925Z,1001.89
2018-06-09T03:44:11.911Z,1001.91
2018-06-09T03:45:11.927Z,1001.89
2018-06-09T03:46:11.940Z,1001.91
2018-06-09T03:47:11.992Z,1001.90
2018-06-09T03:48:11.975Z,1001.90
2018-06-09T03:49:11.990Z,1001.89
2018-06-09T03:50:12.007Z,1001.91
2018-06-09T03:51:12.022Z,1001.92
2018-06-09T03:52:12.036Z,1001.90
2018-06-09T03:53:12.053Z,1001.88
2018-06-09T03:54:12.070Z,1001.88
2018-06-09T03:55:12.086Z,1001.87
2018-06-09T03:56:12.100Z,1001.85
2018-06-09T03:57:12.116Z,1001.93
2018-06-09T03:58:12.134Z,1001.90
2018-06-09T03:59:12.151Z,1001.93
2018-06-09T04:00:12.162Z,1001.88
2018-06-09T04:01:12.181Z,1001.90
2018-06-09T04:02:12.195Z,1001.89
2018-06-09T04:03:12.217Z,1001.83
2018-06-09T04:04:12.223Z,1001.81
2018-06-09T04:05:12.251Z,1001.84
2018-06-09T04:06:12.308Z,1001.81
2018-06-09T04:07:12.279Z,1001.80
2018-06-09T04:08:12.294Z,1001.82
2018-06-09T04:09:12.316Z,1001.79
2018-06-09T04:10:12.327Z,1001.79
2018-06-09T04:11:12.347Z,1001.84
2018-06-09T04:12:12.405Z,1001.83
2018-06-09T04:13:12.376Z,1001.84
2018-06-09T04:14:12.393Z,1001.82
2018-06-09T04:15:12.413Z,1001.83
2018-06-09T04:16:12.417Z,1001.82
2018-06-09T04:17:12.475Z,1001.83
2018-06-09T04:18:12.457Z,1001.85
2018-06-09T04:19:12.479Z,1001.81
2018-06-09T04:20:12.486Z,1001.83
2018-06-09T04:21:12.495Z,1001.84
2018-06-09T04:22:12.512Z,1001.85
2018-06-09T04:23:12.614Z,1001.83
2018-06-09T04:24:12.545Z,1001.80
2018-06-09T04:25:12.565Z,1001.82
2018-06-09T04:26:12.579Z,1001.85
2018-06-09T04:27:12.598Z,1001.83
2018-06-09T04:28:12.615Z,1001.85
2018-06-09T04:29:12.638Z,1001.88
2018-06-09T04:30:12.696Z,1001.84
2018-06-09T04:31:12.655Z,1001.81
2018-06-09T04:32:12.673Z,1001.86
2018-06-09T04:33:12.693Z,1001.85
2018-06-09T04:34:12.711Z,1001.87
2018-06-09T04:35:12.750Z,1001.87
2018-06-09T04:36:12.793Z,1001.86
2018-06-09T04:37:12.758Z,1001.87
2018-06-09T04:38:12.770Z,1001.86
2018-06-09T04:39:12.784Z,1001.84
2018-06-09T04:40:12.807Z,1001.81
2018-06-09T04:41:12.821Z,1001.82
2018-06-09T04:42:12.834Z,1001.85
2018-06-09T04:43:12.857Z,1001.84
2018-06-09T04:44:12.863Z,1001.82
2018-06-09T04:45:12.885Z,1001.82
2018-06-09T04:46:12.899Z,1001.83
2018-06-09T04:47:12.916Z,1001.82
2018-06-09T04:48:12.982Z,1001.83
2018-06-09T04:49:12.957Z,1001.83
2018-06-09T04:50:12.967Z,1001.85
2018-06-09T04:51:12.986Z,1001.81
2018-06-09T04:52:13.006Z,1001.82
2018-06-09T04:53:13.015Z,1001.79
2018-06-09T04:54:13.036Z,1001.77
2018-06-09T04:55:13.041Z,1001.81
2018-06-09T04:56:13.061Z,1001.86
2018-06-09T04:57:13.082Z,1001.85
2018-06-09T04:58:13.089Z,1001.85
2018-06-09T04:59:13.132Z,1001.85
2018-06-09T05:00:13.128Z,1001.90
2018-06-09T05:01:13.145Z,1001.87
2018-06-09T05:02:13.154Z,1001.85
2018-06-09T05:03:13.174Z,1001.88
2018-06-09T05:04:13.194Z,1001.88
2018-06-09T05:05:13.208Z,1001.90
2018-06-09T05:06:13.278Z,1001.91
2018-06-09T05:07:13.287Z,1001.92
2018-06-09T05:08:13.255Z,1001.94
2018-06-09T05:09:13.273Z,1001.95
2018-06-09T05:10:13.313Z,1001.99
2018-06-09T05:11:13.306Z,1001.97
2018-06-09T05:12:13.373Z,1001.98
2018-06-09T05:13:13.340Z,1001.94
2018-06-09T05:14:13.353Z,1002.01
2018-06-09T05:15:13.386Z,1001.97
2018-06-09T05:16:13.394Z,1001.98
2018-06-09T05:17:13.404Z,1002.01
2018-06-09T05:18:13.418Z,1001.98
2018-06-09T05:19:13.435Z,1002.02
2018-06-09T05:20:13.448Z,1002.01
2018-06-09T05:21:13.468Z,1002.01
2018-06-09T05:22:13.487Z,1002.04
2018-06-09T05:23:13.501Z,1002.00
2018-06-09T05:24:13.568Z,1002.02
2018-06-09T05:25:13.531Z,1002.01
2018-06-09T05:26:13.555Z,1002.02
2018-06-09T05:27:13.568Z,1002.00
2018-06-09T05:28:13.582Z,1001.95
2018-06-09T05:29:13.595Z,1001.99
2018-06-09T05:30:13.618Z,1002.01
2018-06-09T05:31:13.632Z,1002.03
2018-06-09T05:32:13.646Z,1001.98
2018-06-09T05:33:13.663Z,1002.01
2018-06-09T05:34:13.678Z,1001.99
2018-06-09T05:35:13.699Z,1002.05
2018-06-09T05:36:13.713Z,1002.09
2018-06-09T05:37:13.737Z,1002.10
2018-06-09T05:38:13.746Z,1002.09
2018-06-09T05:39:13.764Z,1002.10
2018-06-09T05:40:13.808Z,1002.11
2018-06-09T05:41:13.808Z,1002.12
2018-06-09T05:42:13.807Z,1002.12
2018-06-09T05:43:13.821Z,1002.17
2018-06-09T05:44:13.835Z,1002.13
2018-06-09T05:45:13.855Z,1002.12
2018-06-09T05:46:13.878Z,1002.19
2018-06-09T05:47:13.895Z,1002.21
2018-06-09T05:48:13.961Z,1002.19
2018-06-09T05:49:13.919Z,1002.13
2018-06-09T05:50:13.934Z,1002.16
2018-06-09T05:51:13.958Z,1002.13
2018-06-09T05:52:13.969Z,1002.12
2018-06-09T05:53:13.993Z,1002.17
2018-06-09T05:54:14.055Z,1002.14
2018-06-09T05:55:14.021Z,1002.13
2018-06-09T05:56:14.038Z,1002.15
2018-06-09T05:57:14.049Z,1002.13
2018-06-09T05:58:14.066Z,1002.14
2018-06-09T05:59:14.084Z,1002.19
2018-06-09T06:00:14.154Z,1002.17
2018-06-09T06:01:14.113Z,1002.18
2018-06-09T06:02:14.126Z,1002.19
2018-06-09T06:03:14.148Z,1002.16
2018-06-09T06:04:14.158Z,1002.16
2018-06-09T06:05:14.180Z,1002.15
2018-06-09T06:06:14.248Z,1002.17
2018-06-09T06:07:14.205Z,1002.18
2018-06-09T06:08:14.220Z,1002.22
2018-06-09T06:09:14.255Z,1002.20
2018-06-09T06:10:14.255Z,1002.23
2018-06-09T06:11:14.276Z,1002.24
2018-06-09T06:12:14.349Z,1002.19
2018-06-09T06:13:14.299Z,1002.17
2018-06-09T06:14:14.321Z,1002.19
2018-06-09T06:15:14.373Z,1002.22
2018-06-09T06:16:14.351Z,1002.18
2018-06-09T06:17:14.364Z,1002.21
2018-06-09T06:18:14.433Z,1002.26
2018-06-09T06:19:14.401Z,1002.24
2018-06-09T06:20:14.419Z,1002.22
2018-06-09T06:21:14.437Z,1002.22
2018-06-09T06:22:14.450Z,1002.20
2018-06-09T06:23:14.466Z,1002.20
2018-06-09T06:24:14.525Z,1002.17
2018-06-09T06:25:14.491Z,1002.17
2018-06-09T06:26:14.507Z,1002.22
2018-06-09T06:27:14.529Z,1002.18
2018-06-09T06:28:14.546Z,1002.20
2018-06-09T06:29:14.560Z,1002.19
2018-06-09T06:30:14.621Z,1002.20
2018-06-09T06:31:14.593Z,1002.20
2018-06-09T06:32:14.604Z,1002.19
2018-06-09T06:33:14.632Z,1002.21
2018-06-09T06:34:14.636Z,1002.20
2018-06-09T06:35:14.655Z,1002.21
2018-06-09T06:36:14.724Z,1002.20
2018-06-09T06:37:14.687Z,1002.19
2018-06-09T06:38:14.725Z,1002.20
2018-06-09T06:39:14.730Z,1002.21
2018-06-09T06:40:14.736Z,1002.27
2018-06-09T06:41:14.750Z,1002.26
2018-06-09T06:42:14.815Z,1002.21
2018-06-09T06:43:14.777Z,1002.28
2018-06-09T06:44:14.816Z,1002.18
2018-06-09T06:45:14.808Z,1002.20
2018-06-09T06:46:14.835Z,1002.22
2018-06-09T06:47:14.918Z,1002.22
2018-06-09T06:48:14.913Z,1002.20
2018-06-09T06:49:14.875Z,1002.16
2018-06-09T06:50:14.961Z,1002.15
2018-06-09T06:51:14.915Z,1002.14
2018-06-09T06:52:14.925Z,1002.18
2018-06-09T06:53:14.938Z,1002.15
2018-06-09T06:54:15.011Z,1002.14
2018-06-09T06:55:14.972Z,1002.10
2018-06-09T06:56:14.988Z,1002.15
2018-06-09T06:57:15.003Z,1002.11
2018-06-09T06:58:15.021Z,1002.18
2018-06-09T06:59:15.039Z,1002.19
2018-06-09T07:00:15.104Z,1002.23
2018-06-09T07:01:15.096Z,1002.24
2018-06-09T07:02:15.142Z,1002.21
2018-06-09T07:03:15.101Z,1002.25
2018-06-09T07:04:15.117Z,1002.20
2018-06-09T07:05:15.134Z,1002.23
2018-06-09T07:06:15.203Z,1002.28
2018-06-09T07:07:15.160Z,1002.27
2018-06-09T07:08:15.234Z,1002.26
2018-06-09T07:09:15.195Z,1002.27
2018-06-09T07:10:15.214Z,1002.28
2018-06-09T07:11:15.230Z,1002.35
2018-06-09T07:12:15.295Z,1002.30
2018-06-09T07:13:15.267Z,1002.31
2018-06-09T07:14:15.338Z,1002.36
2018-06-09T07:15:15.291Z,1002.34
2018-06-09T07:16:15.312Z,1002.28
2018-06-09T07:17:15.321Z,1002.31
2018-06-09T07:18:15.396Z,1002.30
2018-06-09T07:19:15.356Z,1002.38
2018-06-09T07:20:15.456Z,1002.34
2018-06-09T07:21:15.391Z,1002.35
2018-06-09T07:22:15.440Z,1002.45
2018-06-09T07:23:15.424Z,1002.42
2018-06-09T07:24:15.488Z,1002.39
2018-06-09T07:25:15.456Z,1002.36
2018-06-09T07:26:15.506Z,1002.42
2018-06-09T07:27:15.488Z,1002.34
2018-06-09T07:28:15.499Z,1002.44
2018-06-09T07:29:15.516Z,1002.41
2018-06-09T07:30:15.582Z,1002.38
2018-06-09T07:31:15.553Z,1002.43
2018-06-09T07:32:15.566Z,1002.41
2018-06-09T07:33:15.579Z,1002.42
2018-06-09T07:34:15.594Z,1002.45
2018-06-09T07:35:15.687Z,1002.42
2018-06-09T07:36:15.631Z,1002.42
2018-06-09T07:37:15.668Z,1002.48
2018-06-09T07:38:15.661Z,1002.51
2018-06-09T07:39:15.677Z,1002.49
2018-06-09T07:40:15.695Z,1002.50
2018-06-09T07:41:15.705Z,1002.50
2018-06-09T07:42:15.772Z,1002.52
2018-06-09T07:43:15.770Z,1002.60
2018-06-09T07:44:15.761Z,1002.58
2018-06-09T07:45:15.778Z,1002.58
2018-06-09T07:46:15.788Z,1002.53
2018-06-09T07:47:15.805Z,1002.50
2018-06-09T07:48:15.825Z,1002.57
2018-06-09T07:49:15.896Z,1002.58
2018-06-09T07:50:15.857Z,1002.60
2018-06-09T07:51:15.863Z,1002.57
2018-06-09T07:52:15.890Z,1002.60
2018-06-09T07:53:15.902Z,1002.58
2018-06-09T07:54:15.971Z,1002.62
2018-06-09T07:55:15.960Z,1002.62
2018-06-09T07:56:15.947Z,1002.62
2018-06-09T07:57:15.961Z,1002.61
2018-06-09T07:58:15.982Z,1002.61
2018-06-09T07:59:15.991Z,1002.60
2018-06-09T08:00:16.065Z,1002.58
2018-06-09T08:01:16.067Z,1002.59
2018-06-09T08:02:16.043Z,1002.55
2018-06-09T08:03:16.056Z,1002.55
2018-06-09T08:04:16.075Z,1002.59
2018-06-09T08:05:16.091Z,1002.59
2018-06-09T08:06:16.156Z,1002.60
2018-06-09T08:07:16.128Z,1002.61
2018-06-09T08:08:16.141Z,1002.63
2018-06-09T08:09:16.151Z,1002.64
2018-06-09T08:10:16.171Z,1002.65
2018-06-09T08:11:16.193Z,1002.67
2018-06-09T08:12:16.257Z,1002.66
2018-06-09T08:13:16.256Z,1002.66
2018-06-09T08:14:16.238Z,1002.68
2018-06-09T08:15:16.249Z,1002.68
2018-06-09T08:16:16.267Z,1002.69
2018-06-09T08:17:16.282Z,1002.70
2018-06-09T08:18:16.353Z,1002.74
2018-06-09T08:19:16.409Z,1002.72
2018-06-09T08:20:16.328Z,1002.70
2018-06-09T08:21:16.350Z,1002.69
2018-06-09T08:22:16.366Z,1002.67
2018-06-09T08:23:16.380Z,1002.69
2018-06-09T08:24:16.446Z,1002.72
2018-06-09T08:25:16.435Z,1002.66
2018-06-09T08:26:16.434Z,1002.69
2018-06-09T08:27:16.449Z,1002.70
2018-06-09T08:28:16.460Z,1002.73
2018-06-09T08:29:16.475Z,1002.71
2018-06-09T08:30:16.548Z,1002.73
2018-06-09T08:31:16.508Z,1002.75
2018-06-09T08:32:16.525Z,1002.79
2018-06-09T08:33:16.542Z,1002.79
2018-06-09T08:34:16.563Z,1002.81
2018-06-09T08:35:16.576Z,1002.79
2018-06-09T08:36:16.716Z,1002.84
2018-06-09T08:37:16.610Z,1002.83
2018-06-09T08:38:16.628Z,1002.87
2018-06-09T08:39:16.646Z,1002.83
2018-06-09T08:40:16.659Z,1002.86
2018-06-09T08:41:16.675Z,1002.87
2018-06-09T08:42:16.742Z,1002.87
2018-06-09T08:43:16.796Z,1002.87
2018-06-09T08:44:16.723Z,1002.90
2018-06-09T08:45:16.741Z,1002.88
2018-06-09T08:46:16.766Z,1002.87
2018-06-09T08:47:16.770Z,1002.89
2018-06-09T08:48:16.849Z,1002.88
2018-06-09T08:49:16.803Z,1002.85
2018-06-09T08:50:16.821Z,1002.85
2018-06-09T08:51:16.834Z,1002.87
2018-06-09T08:52:16.852Z,1002.89
2018-06-09T08:53:16.868Z,1002.88
2018-06-09T08:54:16.936Z,1002.94
2018-06-09T08:55:16.905Z,1002.90
2018-06-09T08:56:16.919Z,1002.95
2018-06-09T08:57:16.932Z,1002.94
2018-06-09T08:58:16.953Z,1002.95
2018-06-09T08:59:16.970Z,1002.92
2018-06-09T09:00:17.034Z,1002.87
2018-06-09T09:01:16.999Z,1002.86
2018-06-09T09:02:17.018Z,1002.91
2018-06-09T09:03:17.034Z,1002.88
2018-06-09T09:04:17.051Z,1002.94
2018-06-09T09:05:17.066Z,1002.88
2018-06-09T09:06:17.139Z,1002.90
2018-06-09T09:07:17.099Z,1002.93
2018-06-09T09:08:17.118Z,1002.96
2018-06-09T09:09:17.159Z,1002.96
2018-06-09T09:10:17.154Z,1002.93
2018-06-09T09:11:17.165Z,1002.99
2018-06-09T09:12:17.183Z,1002.97
2018-06-09T09:13:17.204Z,1002.98
2018-06-09T09:14:17.218Z,1002.96
2018-06-09T09:15:17.231Z,1002.97
2018-06-09T09:16:17.255Z,1002.98
2018-06-09T09:17:17.269Z,1002.98
2018-06-09T09:18:17.290Z,1003.00
2018-06-09T09:19:17.301Z,1002.97
2018-06-09T09:20:17.321Z,1003.00
2018-06-09T09:21:17.335Z,1002.96
2018-06-09T09:22:17.354Z,1002.99
2018-06-09T09:23:17.366Z,1002.98
2018-06-09T09:24:17.433Z,1002.92
2018-06-09T09:25:17.408Z,1002.97
2018-06-09T09:26:17.421Z,1002.95
2018-06-09T09:27:17.437Z,1002.93
2018-06-09T09:28:17.455Z,1002.97
2018-06-09T09:29:17.470Z,1002.99
2018-06-09T09:30:17.487Z,1002.99
2018-06-09T09:31:17.519Z,1002.96
2018-06-09T09:32:17.526Z,1003.00
2018-06-09T09:33:17.539Z,1002.96
2018-06-09T09:34:17.560Z,1002.99
2018-06-09T09:35:17.578Z,1002.98
2018-06-09T09:36:17.672Z,1003.03
2018-06-09T09:37:17.640Z,1003.03
2018-06-09T09:38:17.633Z,1003.09
2018-06-09T09:39:17.641Z,1003.07
2018-06-09T09:40:17.667Z,1003.08
2018-06-09T09:41:17.679Z,1003.07
2018-06-09T09:42:17.697Z,1003.02
2018-06-09T09:43:17.756Z,1003.08
2018-06-09T09:44:17.734Z,1003.05
2018-06-09T09:45:17.754Z,1003.02
2018-06-09T09:46:17.794Z,1003.02
2018-06-09T09:47:17.786Z,1003.03
2018-06-09T09:48:17.804Z,1003.02
2018-06-09T09:49:17.885Z,1003.12
2018-06-09T09:50:17.840Z,1003.12
2018-06-09T09:51:17.910Z,1003.10
2018-06-09T09:52:17.885Z,1003.07
2018-06-09T09:53:17.901Z,1003.08
2018-06-09T09:54:17.921Z,1003.09
2018-06-09T09:55:17.990Z,1003.11
2018-06-09T09:56:17.950Z,1003.17
2018-06-09T09:57:17.972Z,1003.15
2018-06-09T09:58:17.990Z,1003.14
2018-06-09T09:59:18.013Z,1003.20
2018-06-09T10:00:18.083Z,1003.19
2018-06-09T10:01:18.044Z,1003.24
2018-06-09T10:02:18.068Z,1003.24
2018-06-09T10:03:18.094Z,1003.26
2018-06-09T10:04:18.099Z,1003.22
2018-06-09T10:05:18.119Z,1003.26
2018-06-09T10:06:18.145Z,1003.30
2018-06-09T10:07:18.155Z,1003.21
2018-06-09T10:08:18.180Z,1003.26
2018-06-09T10:09:18.208Z,1003.30
2018-06-09T10:10:18.214Z,1003.26
2018-06-09T10:11:18.238Z,1003.27
2018-06-09T10:12:18.304Z,1003.30
2018-06-09T10:13:18.272Z,1003.27
2018-06-09T10:14:18.300Z,1003.28
2018-06-09T10:15:18.319Z,1003.30
2018-06-09T10:16:18.337Z,1003.31
2018-06-09T10:17:18.402Z,1003.38
2018-06-09T10:18:18.422Z,1003.30
2018-06-09T10:19:18.392Z,1003.32
2018-06-09T10:20:18.416Z,1003.37
2018-06-09T10:21:18.432Z,1003.33
2018-06-09T10:22:18.449Z,1003.36
2018-06-09T10:23:18.477Z,1003.34
2018-06-09T10:24:18.590Z,1003.35
2018-06-09T10:25:18.508Z,1003.43
2018-06-09T10:26:18.529Z,1003.33
2018-06-09T10:27:18.548Z,1003.37
2018-06-09T10:28:18.570Z,1003.41
2018-06-09T10:29:18.592Z,1003.29
2018-06-09T10:30:18.680Z,1003.31
2018-06-09T10:31:18.627Z,1003.35
2018-06-09T10:32:18.645Z,1003.33
2018-06-09T10:33:18.673Z,1003.38
2018-06-09T10:34:18.687Z,1003.38
2018-06-09T10:35:18.705Z,1003.35
2018-06-09T10:36:18.779Z,1003.37
2018-06-09T10:37:18.746Z,1003.34
2018-06-09T10:38:18.766Z,1003.31
2018-06-09T10:39:18.788Z,1003.38
2018-06-09T10:40:18.808Z,1003.39
2018-06-09T10:41:18.829Z,1003.31
2018-06-09T10:42:18.919Z,1003.34
2018-06-09T10:43:18.874Z,1003.39
2018-06-09T10:44:18.887Z,1003.37
2018-06-09T10:45:18.979Z,1003.45
2018-06-09T10:46:18.930Z,1003.43
2018-06-09T10:47:18.950Z,1003.37
2018-06-09T10:48:19.046Z,1003.33
2018-06-09T10:49:18.991Z,1003.40
2018-06-09T10:50:19.011Z,1003.38
2018-06-09T10:51:19.029Z,1003.33
2018-06-09T10:52:19.051Z,1003.32
2018-06-09T10:53:19.073Z,1003.40
2018-06-09T10:54:19.091Z,1003.37
2018-06-09T10:55:19.108Z,1003.33
2018-06-09T10:56:19.131Z,1003.37
2018-06-09T10:57:19.152Z,1003.42
2018-06-09T10:58:19.167Z,1003.45
2018-06-09T10:59:19.190Z,1003.40
2018-06-09T11:00:19.259Z,1003.48
2018-06-09T11:01:19.231Z,1003.45
2018-06-09T11:02:19.255Z,1003.42
2018-06-09T11:03:19.271Z,1003.43
2018-06-09T11:04:19.286Z,1003.46
2018-06-09T11:05:19.305Z,1003.46
2018-06-09T11:06:19.326Z,1003.46
2018-06-09T11:07:19.349Z,1003.47
2018-06-09T11:08:19.365Z,1003.40
2018-06-09T11:09:19.388Z,1003.41
2018-06-09T11:10:19.411Z,1003.52
2018-06-09T11:11:19.433Z,1003.51
2018-06-09T11:12:19.449Z,1003.48
2018-06-09T11:13:19.469Z,1003.50
2018-06-09T11:14:19.494Z,1003.54
2018-06-09T11:15:19.513Z,1003.55
2018-06-09T11:16:19.531Z,1003.56
2018-06-09T11:17:19.555Z,1003.54
2018-06-09T11:18:19.681Z,1003.49
2018-06-09T11:19:19.590Z,1003.50
2018-06-09T11:20:19.606Z,1003.59
2018-06-09T11:21:19.632Z,1003.63
2018-06-09T11:22:19.649Z,1003.60
2018-06-09T11:23:19.672Z,1003.56
2018-06-09T11:24:19.756Z,1003.57
2018-06-09T11:25:19.716Z,1003.59
2018-06-09T11:26:19.737Z,1003.49
2018-06-09T11:27:19.754Z,1003.50
2018-06-09T11:28:19.769Z,1003.50
2018-06-09T11:29:19.796Z,1003.59
2018-06-09T11:30:19.864Z,1003.45
2018-06-09T11:31:19.832Z,1003.53
2018-06-09T11:32:19.850Z,1003.46
2018-06-09T11:33:19.869Z,1003.52
2018-06-09T11:34:19.892Z,1003.59
2018-06-09T11:35:19.909Z,1003.54
2018-06-09T11:36:19.930Z,1003.56
2018-06-09T11:37:19.953Z,1003.63
2018-06-09T11:38:19.972Z,1003.67
2018-06-09T11:40:20.021Z,1003.55
2018-06-09T11:41:20.034Z,1003.56
2018-06-09T11:42:20.062Z,1003.53
2018-06-09T11:43:20.074Z,1003.53
2018-06-09T11:44:20.094Z,1003.48
2018-06-09T11:45:20.116Z,1003.52
2018-06-09T11:46:20.139Z,1003.49
2018-06-09T11:47:20.159Z,1003.52
2018-06-09T11:48:20.190Z,1003.50
2018-06-09T11:49:20.199Z,1003.48
2018-06-09T11:50:20.218Z,1003.44
2018-06-09T11:51:20.239Z,1003.52
2018-06-09T11:52:20.262Z,1003.52
2018-06-09T11:53:20.305Z,1003.45
2018-06-09T11:54:20.298Z,1003.50
2018-06-09T11:55:20.319Z,1003.47
2018-06-09T11:56:20.339Z,1003.50
2018-06-09T11:57:20.355Z,1003.54
2018-06-09T11:58:20.373Z,1003.49
2018-06-09T11:59:20.438Z,1003.48
2018-06-09T12:00:20.466Z,1003.47
2018-06-09T12:01:20.434Z,1003.46
2018-06-09T12:02:20.456Z,1003.52
2018-06-09T12:03:20.475Z,1003.53
2018-06-09T12:04:20.500Z,1003.46
2018-06-09T12:05:20.518Z,1003.37
2018-06-09T12:06:20.538Z,1003.37
2018-06-09T12:07:20.561Z,1003.29